アリススプリングス の空港の天気 - METARとTAF

アリス・スプリングス空港 ( YBAS / ASP ) - オーストラリア ノーザンテリトリーアリススプリングス
飛行場実況気象(Metar)
観測時間07/01 20:00 ACST (07/01 10:30 UTC)
風向・風速南南東 4m/s
視程10km以上
天気現象
-
気温8℃
湿度61%
気圧1026hPa
METARYBAS 011030Z AUTO 15007KT 9999 // ////// 08/01 Q1026 RF00.0/000.0
過去の天気等 Google飛行場航空写真 Wunderground天気予報

過去48時間のMETAR

飛行場予報(TAF)
発表時間: 7/01 14:36 ACST (7/01 05:06 UTC)
予報対象時間: 1日15時 ACST ~ 2日15時 ACST
風向・風速南東 8m/s 瞬間風速 13m/s
視程10km以上
なし
1日17時 ACST から
風向・風速南東 5m/s
視程10km以上
全天の4割程度の雲 雲底高度 1370m
2日5時 ACST から
風向・風速南東 4m/s
視程10km以上
全天の4割程度の雲 雲底高度 760m
TAF YBAS 010506Z 0106/0206 14015G25KT CAVOK
FM010800 14010KT 9999 SCT045
FM012000 14008KT 9999 SCT025